Anaconda, MT

12:21 AM MST on December 03, 2016 (GMT -0700)
goosetown 2 | | Change Station

Elev 5240 ft 46.13 °N, 112.94 °W | Updated 1 minute ago

Overcast
Overcast
29.0 °F
Feels Like 25 °F
N
4.0
Wind Variable Wind from SE
Gusts 9.0 mph

Today
High -- | Low -- °F
--% Chance of Precip.
Yesterday
High -- | Low -- °F
Precip. -- in
Pressure 30.13 in
Visibility 10.0 miles
Clouds Overcast 4700 ft
Windchill 25 °F
Dew Point 18 °F
Humidity 63%
Rainfall 0.00 in
Snow Depth Not available.
7:56 AM 4:46 PM
Waxing Crescent, 13% visible
METAR KBTM 030653Z AUTO 31003KT 10SM OVC047 M03/M08 A3001 RMK AO2 SLP201 T10331078 410111100
Pressure 30.13 in
Visibility 10.0 miles
Clouds Overcast 4700 ft
Windchill 25 °F
Dew Point 18 °F
Humidity 63%
Rainfall 0.00 in
Snow Depth Not available.
7:56 AM 4:46 PM
Waxing Crescent, 13% visible
METAR KBTM 030653Z AUTO 31003KT 10SM OVC047 M03/M08 A3001 RMK AO2 SLP201 T10331078 410111100

10-Day Weather Forecast

Almanac

Astronomy

Dec. 03, 2016 Rise Set
Actual Time
Civil Twilight
Nautical Twilight
Astronomical Twilight
Moon
Length of Visible Light
Length of Day
Tomorrow will be .
, % of the Moon is Illuminated

Today's Extremes

State Highs State Lows

Community

WunderPhotos

Upload Photos

1,955,432 photos uploaded!

WunderBlog® & News

Nearby

Air Quality

  Air Quality AQ Index Pollutant
Not available.

Snow Depth

Station Depth Elevation

Earthquake Activity

City Distance Mag. Time & Date
Minimum magnitude displayed is 2.5.

Coastal Water Temperatures

Place Temperature

Stations

Nearby Weather Stations

Station Location Temp. Windchill Dew Point Humidity Wind Precip. Elev Updated Type
                   

Watches & Warnings

Winter Weather Advisory, Winter Storm Watch
Issued: 8:33 PM MST Dec. 2, 2016 – National Weather Service

... Winter Weather Advisory in effect until 11 am MST Saturday...
... Winter Storm Watch remains in effect from Sunday morning
through Monday morning...

The National Weather Service in Missoula has issued a Winter
Weather Advisory for snow and blowing snow... which is in effect
until 11 am MST Saturday.

The National Weather Service in Missoula has issued a Winter
Storm Watch... which is in effect from Sunday afternoon through
Monday morning.

* Impacts/timing: light to moderate snow through Saturday morning
will cause periods of snow and blowing snow, particularly on
MacDonald Pass and Homestake pass, that will result in
difficult driving conditions due to slick roads and low
visibility. Snow will return for Sunday afternoon and the
combination of accumulating snow, wind, and quickly dropping
temperatures has the potential to create hazardous travel
conditions Sunday evening through Monday morning.

* Snow accumulations Sunday through Monday morning: 2 to 6 inches.

* Winds: gusty northwest winds with the cold front Sunday
evening.